createdAt,value
2022-08-17T00:00:43.078Z,21.83
2022-08-17T00:03:32.504Z,21.77
2022-08-17T00:06:14.125Z,21.71
2022-08-17T00:08:51.561Z,21.69
2022-08-17T00:11:38.631Z,21.67
2022-08-17T00:14:14.369Z,21.65
2022-08-17T00:16:57.336Z,21.62
2022-08-17T00:19:27.189Z,21.56
2022-08-17T00:22:31.324Z,21.52
2022-08-17T00:24:49.252Z,21.48
2022-08-17T00:27:18.842Z,21.44
2022-08-17T00:29:48.374Z,21.40
2022-08-17T00:33:12.287Z,21.37
2022-08-17T00:35:09.880Z,21.32
2022-08-17T00:37:39.054Z,21.29
2022-08-17T00:40:14.034Z,21.28
2022-08-17T00:42:44.411Z,21.24
2022-08-17T00:45:16.582Z,21.21
2022-08-17T00:47:45.420Z,21.17
2022-08-17T00:50:19.223Z,21.14
2022-08-17T00:52:57.550Z,21.10
2022-08-17T00:55:27.641Z,21.04
2022-08-17T00:58:02.732Z,20.99
2022-08-17T01:00:42.268Z,20.96
2022-08-17T01:03:20.839Z,20.92
2022-08-17T01:05:53.732Z,20.89
2022-08-17T01:08:27.321Z,20.86
2022-08-17T01:11:02.219Z,20.83
2022-08-17T01:13:43.611Z,20.81
2022-08-17T01:16:38.927Z,20.77
2022-08-17T01:19:42.047Z,20.72
2022-08-17T01:22:23.672Z,20.68
2022-08-17T01:24:56.999Z,20.64
2022-08-17T01:27:26.993Z,20.55
2022-08-17T01:30:02.785Z,20.53
2022-08-17T01:32:32.109Z,20.53
2022-08-17T01:35:02.327Z,20.51
2022-08-17T01:37:36.103Z,20.49
2022-08-17T01:40:43.259Z,20.46
2022-08-17T01:43:24.972Z,20.42
2022-08-17T01:46:03.569Z,20.38
2022-08-17T01:48:36.606Z,20.37
2022-08-17T01:51:07.684Z,20.36
2022-08-17T01:53:42.952Z,20.36
2022-08-17T01:56:16.135Z,20.34
2022-08-17T01:58:45.820Z,20.32
2022-08-17T02:01:24.618Z,20.30
2022-08-17T02:04:00.977Z,20.29
2022-08-17T02:06:44.950Z,20.26
2022-08-17T02:09:29.662Z,20.22
2022-08-17T02:12:38.962Z,20.19
2022-08-17T02:14:52.398Z,20.16
2022-08-17T02:17:21.240Z,20.14
2022-08-17T02:19:50.051Z,20.12
2022-08-17T02:22:19.329Z,20.10
2022-08-17T02:24:59.870Z,20.08
2022-08-17T02:27:31.042Z,20.05
2022-08-17T02:29:59.860Z,20.04
2022-08-17T02:32:29.653Z,20.04
2022-08-17T02:35:00.379Z,20.03
2022-08-17T02:37:30.755Z,20.01
2022-08-17T02:40:00.082Z,20.00
2022-08-17T02:42:36.592Z,19.99
2022-08-17T02:45:11.274Z,19.97
2022-08-17T02:47:40.323Z,19.96
2022-08-17T02:50:12.984Z,19.94
2022-08-17T02:52:44.463Z,19.93
2022-08-17T02:55:32.811Z,19.91
2022-08-17T02:58:03.641Z,19.88
2022-08-17T03:00:41.658Z,19.87
2022-08-17T03:03:13.723Z,19.85
2022-08-17T03:05:43.139Z,19.82
2022-08-17T03:08:13.261Z,19.80
2022-08-17T03:10:44.891Z,19.78
2022-08-17T03:13:14.826Z,19.76
2022-08-17T03:15:46.113Z,19.74
2022-08-17T03:18:25.444Z,19.72
2022-08-17T03:20:58.552Z,19.70
2022-08-17T03:23:29.429Z,19.70
2022-08-17T03:26:00.271Z,19.69
2022-08-17T03:28:29.767Z,19.68
2022-08-17T03:30:58.553Z,19.67
2022-08-17T03:33:27.583Z,19.65
2022-08-17T03:35:56.513Z,19.63
2022-08-17T03:38:26.573Z,19.62
2022-08-17T03:40:59.438Z,19.61
2022-08-17T03:43:31.144Z,19.61
2022-08-17T03:46:28.943Z,19.61
2022-08-17T03:49:27.218Z,19.61
2022-08-17T03:52:16.522Z,19.60
2022-08-17T03:55:04.311Z,19.60
2022-08-17T03:57:33.139Z,19.57
2022-08-17T04:00:01.924Z,19.56
2022-08-17T04:02:42.920Z,19.55
2022-08-17T04:05:11.859Z,19.57
2022-08-17T04:07:41.745Z,19.59
2022-08-17T04:10:10.629Z,19.58
2022-08-17T04:12:54.636Z,19.58
2022-08-17T04:15:23.346Z,19.59
2022-08-17T04:17:52.558Z,19.61
2022-08-17T04:20:24.423Z,19.64
2022-08-17T04:23:02.227Z,19.67
2022-08-17T04:25:34.897Z,19.70
2022-08-17T04:28:05.675Z,19.73
2022-08-17T04:30:47.426Z,19.76
2022-08-17T04:33:24.260Z,19.77
2022-08-17T04:35:58.190Z,19.80
2022-08-17T04:38:34.754Z,19.84
2022-08-17T04:41:23.393Z,19.88
2022-08-17T04:43:56.086Z,19.93
2022-08-17T04:46:32.855Z,19.98
2022-08-17T04:49:06.724Z,20.03
2022-08-17T04:51:46.690Z,20.09
2022-08-17T04:54:24.717Z,20.16
2022-08-17T04:56:53.520Z,20.23
2022-08-17T04:59:23.020Z,20.30
2022-08-17T05:01:52.715Z,20.36
2022-08-17T05:04:34.634Z,20.43
2022-08-17T05:07:04.756Z,20.51
2022-08-17T05:09:33.628Z,20.58
2022-08-17T05:12:03.173Z,20.65
2022-08-17T05:14:33.075Z,20.73
2022-08-17T05:17:07.040Z,20.81
2022-08-17T05:19:39.757Z,20.88
2022-08-17T05:22:08.686Z,20.97
2022-08-17T05:24:39.130Z,21.06
2022-08-17T05:27:16.761Z,21.15
2022-08-17T05:29:48.214Z,21.24
2022-08-17T05:32:39.480Z,21.35
2022-08-17T05:35:06.641Z,21.52
2022-08-17T05:37:35.514Z,21.67
2022-08-17T05:40:08.191Z,21.81
2022-08-17T05:42:41.706Z,21.95
2022-08-17T05:45:55.957Z,22.12
2022-08-17T05:49:30.857Z,22.36
2022-08-17T05:56:03.037Z,22.95
2022-08-17T05:59:19.850Z,23.26
2022-08-17T06:02:18.858Z,23.57
2022-08-17T06:05:50.183Z,23.96
2022-08-17T06:09:07.519Z,24.45
2022-08-17T06:11:58.968Z,24.94
2022-08-17T06:14:34.202Z,25.40
2022-08-17T06:17:22.963Z,25.74
2022-08-17T06:20:00.519Z,26.09
2022-08-17T06:22:41.314Z,26.50
2022-08-17T06:25:30.893Z,26.83
2022-08-17T06:28:23.779Z,27.18
2022-08-17T06:31:24.362Z,27.59
2022-08-17T06:34:03.507Z,27.92
2022-08-17T06:37:15.415Z,28.24
2022-08-17T06:40:16.089Z,28.58
2022-08-17T06:43:48.119Z,28.84
2022-08-17T06:46:45.928Z,29.24
2022-08-17T06:49:55.197Z,29.54
2022-08-17T06:53:10.031Z,29.72
2022-08-17T06:56:53.330Z,29.90
2022-08-17T06:59:55.806Z,30.25
2022-08-17T07:03:22.012Z,30.51
2022-08-17T07:06:56.193Z,30.84
2022-08-17T07:09:39.732Z,31.13
2022-08-17T07:12:24.494Z,31.35
2022-08-17T07:15:05.562Z,31.65
2022-08-17T07:17:47.699Z,31.87
2022-08-17T07:20:24.991Z,32.12
2022-08-17T07:23:20.076Z,32.35
2022-08-17T07:25:51.998Z,32.57
2022-08-17T07:28:23.564Z,32.72
2022-08-17T07:30:54.576Z,32.87
2022-08-17T07:33:36.962Z,33.02
2022-08-17T07:36:30.081Z,33.19
2022-08-17T07:39:02.939Z,33.36
2022-08-17T07:41:53.061Z,33.48
2022-08-17T07:44:27.883Z,33.57
2022-08-17T07:47:29.937Z,33.62
2022-08-17T07:50:29.741Z,33.66
2022-08-17T07:53:17.248Z,33.76
2022-08-17T07:56:17.015Z,33.83
2022-08-17T07:59:23.592Z,33.91
2022-08-17T08:01:55.562Z,33.95
2022-08-17T08:07:51.339Z,33.99
2022-08-17T08:10:42.722Z,34.03
2022-08-17T08:13:28.929Z,34.06
2022-08-17T08:16:27.233Z,34.10
2022-08-17T08:19:01.340Z,34.12
2022-08-17T08:22:15.460Z,34.09
2022-08-17T08:25:16.318Z,34.06
2022-08-17T08:28:09.119Z,34.16
2022-08-17T08:30:50.276Z,34.27
2022-08-17T08:33:55.119Z,34.36
2022-08-17T08:37:14.761Z,34.39
2022-08-17T08:40:08.937Z,34.44
2022-08-17T08:43:02.567Z,34.53
2022-08-17T08:50:37.167Z,34.76
2022-08-17T08:53:07.244Z,34.77
2022-08-17T08:56:59.006Z,34.84
2022-08-17T09:00:00.909Z,34.93
2022-08-17T09:03:17.694Z,35.08
2022-08-17T09:06:33.509Z,35.21
2022-08-17T09:09:21.369Z,35.24
2022-08-17T09:12:04.068Z,35.29
2022-08-17T09:14:51.177Z,35.49
2022-08-17T09:17:40.300Z,35.63
2022-08-17T09:20:59.753Z,35.61
2022-08-17T09:26:41.170Z,35.77
2022-08-17T09:29:18.285Z,35.92
2022-08-17T09:31:57.678Z,35.95
2022-08-17T09:34:48.497Z,35.93
2022-08-17T09:37:40.309Z,35.97
2022-08-17T09:40:38.013Z,35.99
2022-08-17T09:43:52.773Z,36.05
2022-08-17T09:46:45.038Z,35.98
2022-08-17T09:49:25.346Z,35.90
2022-08-17T09:52:19.626Z,35.87
2022-08-17T09:54:56.024Z,35.84
2022-08-17T09:57:54.261Z,35.81
2022-08-17T10:00:36.002Z,35.69
2022-08-17T10:03:49.652Z,35.56
2022-08-17T10:06:33.970Z,35.73
2022-08-17T10:09:16.048Z,35.91
2022-08-17T10:12:17.810Z,35.89
2022-08-17T10:15:22.742Z,35.87
2022-08-17T10:18:31.810Z,36.00
2022-08-17T10:21:28.994Z,36.11
2022-08-17T10:25:21.453Z,36.18
2022-08-17T10:27:54.545Z,36.04
2022-08-17T10:30:36.638Z,36.12
2022-08-17T10:33:24.127Z,36.18
2022-08-17T10:36:18.220Z,36.13
2022-08-17T10:39:01.606Z,36.03
2022-08-17T10:41:42.884Z,35.99
2022-08-17T10:44:48.909Z,35.86
2022-08-17T10:47:19.321Z,35.47
2022-08-17T10:49:54.360Z,35.27
2022-08-17T10:52:24.089Z,35.13
2022-08-17T10:55:13.459Z,34.84
2022-08-17T10:57:50.393Z,34.59
2022-08-17T11:00:27.000Z,34.38
2022-08-17T11:03:09.454Z,34.07
2022-08-17T11:06:13.977Z,33.86
2022-08-17T11:09:02.805Z,33.69
2022-08-17T11:11:47.862Z,33.52
2022-08-17T11:14:23.927Z,33.07
2022-08-17T11:17:21.223Z,32.70
2022-08-17T11:20:28.876Z,32.59
2022-08-17T11:23:18.369Z,32.36
2022-08-17T11:25:59.992Z,32.10
2022-08-17T11:28:36.108Z,31.89
2022-08-17T11:31:38.645Z,31.71
2022-08-17T11:34:23.553Z,31.64
2022-08-17T11:37:14.060Z,31.61
2022-08-17T11:40:23.613Z,31.75
2022-08-17T11:43:25.684Z,31.81
2022-08-17T11:46:59.395Z,31.83
2022-08-17T11:50:12.820Z,31.66
2022-08-17T11:52:49.163Z,31.59
2022-08-17T11:55:44.858Z,31.66
2022-08-17T11:58:29.696Z,31.74
2022-08-17T12:01:02.343Z,31.54
2022-08-17T12:03:37.829Z,31.39
2022-08-17T12:06:45.049Z,31.48
2022-08-17T12:09:25.258Z,31.68
2022-08-17T12:12:12.656Z,31.81
2022-08-17T12:15:10.029Z,31.93
2022-08-17T12:17:53.912Z,31.93
2022-08-17T12:20:43.027Z,31.95
2022-08-17T12:24:06.732Z,31.96
2022-08-17T12:27:02.515Z,31.94
2022-08-17T12:29:39.917Z,31.95
2022-08-17T12:32:21.237Z,31.98
2022-08-17T12:34:56.466Z,32.04
2022-08-17T12:37:34.651Z,32.11
2022-08-17T12:40:27.497Z,32.14
2022-08-17T12:43:02.657Z,32.10
2022-08-17T12:45:44.893Z,32.05
2022-08-17T12:48:25.810Z,32.03
2022-08-17T12:51:20.321Z,32.00
2022-08-17T12:53:55.641Z,31.97
2022-08-17T12:56:25.318Z,31.94
2022-08-17T12:59:00.081Z,31.90
2022-08-17T13:01:42.255Z,31.87
2022-08-17T13:04:17.635Z,31.84
2022-08-17T13:07:01.706Z,31.83
2022-08-17T13:09:40.382Z,31.83
2022-08-17T13:12:13.665Z,31.85
2022-08-17T13:14:46.845Z,31.83
2022-08-17T13:17:28.247Z,31.79
2022-08-17T13:20:16.647Z,31.74
2022-08-17T13:23:27.104Z,31.73
2022-08-17T13:26:16.951Z,31.72
2022-08-17T13:29:02.109Z,31.71
2022-08-17T13:32:13.553Z,31.70
2022-08-17T13:35:15.012Z,31.66
2022-08-17T13:38:09.661Z,31.60
2022-08-17T13:40:55.343Z,31.59
2022-08-17T13:43:46.036Z,31.58
2022-08-17T13:46:28.931Z,31.56
2022-08-17T13:49:12.672Z,31.54
2022-08-17T13:51:51.492Z,31.54
2022-08-17T13:54:34.003Z,31.53
2022-08-17T13:57:29.952Z,31.52
2022-08-17T14:00:31.086Z,31.49
2022-08-17T14:03:05.480Z,31.46
2022-08-17T14:06:56.228Z,31.45
2022-08-17T14:09:54.476Z,31.41
2022-08-17T14:12:30.766Z,31.40
2022-08-17T14:15:03.867Z,31.43
2022-08-17T14:17:38.465Z,31.43
2022-08-17T14:20:11.895Z,31.41
2022-08-17T14:22:46.475Z,31.40
2022-08-17T14:25:24.188Z,31.38
2022-08-17T14:27:55.827Z,31.36
2022-08-17T14:30:33.389Z,31.35
2022-08-17T14:33:06.074Z,31.36
2022-08-17T14:35:36.791Z,31.36
2022-08-17T14:38:09.725Z,31.35
2022-08-17T14:40:43.389Z,31.35
2022-08-17T14:43:21.284Z,31.36
2022-08-17T14:45:52.786Z,31.36
2022-08-17T14:48:22.144Z,31.35
2022-08-17T14:50:54.446Z,31.34
2022-08-17T14:53:24.751Z,31.32
2022-08-17T14:56:04.411Z,31.30
2022-08-17T14:58:36.216Z,31.26
2022-08-17T15:01:16.763Z,31.22
2022-08-17T15:03:58.523Z,31.18
2022-08-17T15:06:39.948Z,31.14
2022-08-17T15:09:21.758Z,31.13
2022-08-17T15:11:54.336Z,31.14
2022-08-17T15:14:36.790Z,31.15
2022-08-17T15:17:18.252Z,31.14
2022-08-17T15:19:50.430Z,31.15
2022-08-17T15:22:29.830Z,31.15
2022-08-17T15:25:13.089Z,31.15
2022-08-17T15:28:06.636Z,31.16
2022-08-17T15:30:45.369Z,31.16
2022-08-17T15:33:24.365Z,31.17
2022-08-17T15:36:10.460Z,31.15
2022-08-17T15:38:42.122Z,31.12
2022-08-17T15:41:18.314Z,31.10
2022-08-17T15:43:51.206Z,31.08
2022-08-17T15:46:26.430Z,31.07
2022-08-17T15:49:01.078Z,31.06
2022-08-17T15:51:38.173Z,31.06
2022-08-17T15:54:19.298Z,31.04
2022-08-17T15:56:55.037Z,31.01
2022-08-17T15:59:26.589Z,30.99
2022-08-17T16:03:13.587Z,30.95
2022-08-17T16:04:52.692Z,30.91
2022-08-17T16:07:26.835Z,30.90
2022-08-17T16:09:56.276Z,30.90
2022-08-17T16:12:31.331Z,30.90
2022-08-17T16:15:06.168Z,30.83
2022-08-17T16:17:40.668Z,30.78
2022-08-17T16:20:20.495Z,30.77
2022-08-17T16:22:58.917Z,30.74
2022-08-17T16:25:51.951Z,30.71
2022-08-17T16:28:35.598Z,30.66
2022-08-17T16:31:11.984Z,30.62
2022-08-17T16:34:15.986Z,30.64
2022-08-17T16:36:54.577Z,30.64
2022-08-17T16:39:30.864Z,30.66
2022-08-17T16:42:06.736Z,30.65
2022-08-17T16:44:37.902Z,30.63
2022-08-17T16:47:10.768Z,30.61
2022-08-17T16:49:46.108Z,30.60
2022-08-17T16:52:33.104Z,30.59
2022-08-17T16:55:13.478Z,30.57
2022-08-17T16:57:53.051Z,30.54
2022-08-17T17:00:26.850Z,30.52
2022-08-17T17:03:19.252Z,30.49
2022-08-17T17:06:37.821Z,30.47
2022-08-17T17:09:25.933Z,30.42
2022-08-17T17:12:05.818Z,30.39
2022-08-17T17:14:43.257Z,30.36
2022-08-17T17:20:43.348Z,30.29
2022-08-17T17:23:40.745Z,30.25
2022-08-17T17:27:08.949Z,30.23
2022-08-17T17:30:10.170Z,30.19
2022-08-17T17:33:28.167Z,30.16
2022-08-17T17:36:31.986Z,30.08
2022-08-17T17:39:13.556Z,30.03
2022-08-17T17:41:59.292Z,29.99
2022-08-17T17:44:41.300Z,29.95
2022-08-17T17:47:12.564Z,29.91
2022-08-17T17:49:48.891Z,29.87
2022-08-17T17:52:30.055Z,29.82
2022-08-17T17:55:30.100Z,29.78
2022-08-17T17:58:29.353Z,29.71
2022-08-17T18:01:31.005Z,29.64
2022-08-17T18:18:22.030Z,29.29
2022-08-17T18:24:26.360Z,29.32
2022-08-17T18:28:19.025Z,29.18
2022-08-17T18:35:23.771Z,28.91
2022-08-17T18:38:22.187Z,28.84
2022-08-17T18:41:35.296Z,28.78
2022-08-17T18:44:33.914Z,28.71
2022-08-17T18:47:17.212Z,28.65
2022-08-17T18:50:08.017Z,28.60
2022-08-17T18:52:44.189Z,28.55
2022-08-17T18:55:34.559Z,28.51
2022-08-17T18:58:27.518Z,28.46
2022-08-17T19:01:00.802Z,28.40
2022-08-17T19:03:44.454Z,28.35
2022-08-17T19:06:38.213Z,28.28
2022-08-17T19:10:09.392Z,28.20
2022-08-17T19:13:13.964Z,28.10
2022-08-17T19:16:14.997Z,27.94
2022-08-17T19:19:30.961Z,27.88
2022-08-17T19:22:50.596Z,27.83
2022-08-17T19:25:48.401Z,27.77
2022-08-17T19:29:13.055Z,27.73
2022-08-17T19:31:44.640Z,27.66
2022-08-17T19:34:30.333Z,27.63
2022-08-17T19:37:39.211Z,27.59
2022-08-17T19:41:52.179Z,27.54
2022-08-17T19:48:28.404Z,27.32
2022-08-17T19:51:24.556Z,27.25
2022-08-17T19:58:29.739Z,27.05
2022-08-17T20:01:16.116Z,26.98
2022-08-17T20:04:00.421Z,26.94
2022-08-17T20:06:38.276Z,26.89
2022-08-17T20:09:20.851Z,26.87
2022-08-17T20:12:04.313Z,26.84
2022-08-17T20:14:53.926Z,26.81
2022-08-17T20:17:35.287Z,26.74
2022-08-17T20:20:39.663Z,26.69
2022-08-17T20:23:20.819Z,26.62
2022-08-17T20:26:05.028Z,26.58
2022-08-17T20:28:39.199Z,26.56
2022-08-17T20:31:46.095Z,26.51
2022-08-17T20:34:33.764Z,26.45
2022-08-17T20:37:15.659Z,26.38
2022-08-17T20:40:07.269Z,26.33
2022-08-17T20:43:49.098Z,26.27
2022-08-17T20:47:04.235Z,26.17
2022-08-17T20:50:38.874Z,26.05
2022-08-17T20:53:52.297Z,26.02
2022-08-17T20:56:44.110Z,26.00
2022-08-17T20:59:39.314Z,25.99
2022-08-17T21:02:31.016Z,25.96
2022-08-17T21:06:17.351Z,25.89
2022-08-17T21:09:39.297Z,25.75
2022-08-17T21:13:10.127Z,25.68
2022-08-17T21:16:04.870Z,25.64
2022-08-17T21:19:16.898Z,25.60
2022-08-17T21:22:33.368Z,25.56
2022-08-17T21:25:27.677Z,25.47
2022-08-17T21:28:23.329Z,25.39
2022-08-17T21:31:09.341Z,25.32
2022-08-17T21:33:39.773Z,25.29
2022-08-17T21:36:12.050Z,25.28
2022-08-17T21:38:53.435Z,25.26
2022-08-17T21:41:35.641Z,25.22
2022-08-17T21:44:27.789Z,25.17
2022-08-17T21:47:28.736Z,25.11
2022-08-17T21:50:24.972Z,25.05
2022-08-17T21:53:01.024Z,25.01
2022-08-17T21:55:32.817Z,24.99
2022-08-17T21:58:14.326Z,24.98
2022-08-17T22:00:44.860Z,24.95
2022-08-17T22:03:26.188Z,24.93
2022-08-17T22:05:55.067Z,24.90
2022-08-17T22:08:25.421Z,24.88
2022-08-17T22:11:04.739Z,24.84
2022-08-17T22:13:38.786Z,24.78
2022-08-17T22:16:28.757Z,24.73
2022-08-17T22:19:00.811Z,24.65
2022-08-17T22:21:30.014Z,24.59
2022-08-17T22:24:24.928Z,24.56
2022-08-17T22:27:13.102Z,24.51
2022-08-17T22:29:47.058Z,24.48
2022-08-17T22:32:48.545Z,24.47
2022-08-17T22:35:58.212Z,24.45
2022-08-17T22:38:31.154Z,24.34
2022-08-17T22:41:29.216Z,24.31
2022-08-17T22:44:09.217Z,24.28
2022-08-17T22:46:49.481Z,24.24
2022-08-17T22:49:31.919Z,24.20
2022-08-17T22:52:31.575Z,24.15
2022-08-17T22:55:35.768Z,24.06
2022-08-17T22:58:36.250Z,23.97
2022-08-17T23:01:35.063Z,23.90
2022-08-17T23:04:30.093Z,23.83
2022-08-17T23:07:00.137Z,23.81
2022-08-17T23:09:30.112Z,23.79
2022-08-17T23:12:08.691Z,23.77
2022-08-17T23:14:41.517Z,23.73
2022-08-17T23:17:10.764Z,23.69
2022-08-17T23:19:39.949Z,23.65
2022-08-17T23:22:11.456Z,23.62
2022-08-17T23:24:50.529Z,23.57
2022-08-17T23:27:21.193Z,23.53
2022-08-17T23:29:53.033Z,23.49
2022-08-17T23:32:23.518Z,23.46
2022-08-17T23:34:52.815Z,23.44
2022-08-17T23:37:22.085Z,23.41
2022-08-17T23:39:51.267Z,23.38
2022-08-17T23:42:22.056Z,23.36
2022-08-17T23:44:51.155Z,23.31
2022-08-17T23:47:21.441Z,23.27
2022-08-17T23:49:50.752Z,23.23
2022-08-17T23:52:24.643Z,23.17
2022-08-17T23:57:48.894Z,23.08
